createdAt,value
2017-07-09T00:02:03.177Z,32.10
2017-07-09T00:04:30.606Z,30.37
2017-07-09T00:06:58.055Z,31.87
2017-07-09T00:09:25.566Z,29.73
2017-07-09T00:11:52.974Z,30.83
2017-07-09T00:14:20.411Z,30.60
2017-07-09T00:16:47.835Z,31.80
2017-07-09T00:19:15.262Z,31.63
2017-07-09T00:21:42.730Z,32.67
2017-07-09T00:24:10.178Z,32.77
2017-07-09T00:26:37.593Z,32.07
2017-07-09T00:29:05.063Z,32.20
2017-07-09T00:31:32.498Z,31.57
2017-07-09T00:33:59.943Z,33.20
2017-07-09T00:36:27.367Z,32.57
2017-07-09T00:38:54.811Z,29.30
2017-07-09T00:41:22.237Z,28.93
2017-07-09T00:43:49.650Z,28.70
2017-07-09T00:46:17.106Z,31.50
2017-07-09T00:48:44.541Z,28.20
2017-07-09T00:51:11.962Z,29.60
2017-07-09T00:53:39.386Z,28.80
2017-07-09T00:56:06.809Z,30.80
2017-07-09T00:58:34.267Z,28.97
2017-07-09T01:01:01.685Z,28.00
2017-07-09T01:03:29.104Z,28.47
2017-07-09T01:05:56.542Z,28.27
2017-07-09T01:08:24.234Z,26.70
2017-07-09T01:10:51.675Z,27.47
2017-07-09T01:13:19.110Z,26.80
2017-07-09T01:15:46.569Z,25.80
2017-07-09T01:18:14.009Z,27.30
2017-07-09T01:20:41.421Z,26.90
2017-07-09T01:23:08.886Z,25.53
2017-07-09T01:25:36.302Z,27.30
2017-07-09T01:28:03.749Z,28.67
2017-07-09T01:30:31.170Z,27.37
2017-07-09T01:32:58.638Z,27.90
2017-07-09T01:35:26.095Z,27.80
2017-07-09T01:37:53.511Z,28.00
2017-07-09T01:40:20.951Z,25.67
2017-07-09T01:42:48.371Z,26.17
2017-07-09T01:45:15.778Z,29.33
2017-07-09T01:47:43.214Z,26.37
2017-07-09T01:50:10.634Z,27.13
2017-07-09T01:52:38.086Z,28.03
2017-07-09T01:55:05.546Z,27.90
2017-07-09T01:57:32.963Z,27.40
2017-07-09T02:00:00.434Z,24.77
2017-07-09T02:02:27.846Z,27.33
2017-07-09T02:04:55.269Z,29.03
2017-07-09T02:07:22.687Z,29.27
2017-07-09T02:09:50.109Z,28.60
2017-07-09T02:12:17.541Z,30.27
2017-07-09T02:14:44.954Z,28.10
2017-07-09T02:17:12.371Z,26.70
2017-07-09T02:19:39.811Z,26.03
2017-07-09T02:22:07.237Z,26.83
2017-07-09T02:24:34.674Z,24.10
2017-07-09T02:27:02.123Z,26.87
2017-07-09T02:29:29.568Z,26.57
2017-07-09T02:31:57.034Z,25.83
2017-07-09T02:34:24.510Z,25.97
2017-07-09T02:36:51.947Z,25.70
2017-07-09T02:39:19.375Z,27.87
2017-07-09T02:41:46.787Z,26.47
2017-07-09T02:44:14.210Z,29.17
2017-07-09T02:46:41.643Z,28.00
2017-07-09T02:49:09.070Z,27.20
2017-07-09T02:51:36.519Z,27.80
2017-07-09T02:54:03.993Z,27.43
2017-07-09T02:56:31.436Z,28.17
2017-07-09T02:58:58.873Z,27.60
2017-07-09T03:01:26.286Z,24.97
2017-07-09T03:03:53.746Z,24.83
2017-07-09T03:06:21.199Z,28.60
2017-07-09T03:08:48.632Z,25.17
2017-07-09T03:11:16.133Z,25.60
2017-07-09T03:13:43.580Z,25.37
2017-07-09T03:16:11.007Z,27.70
2017-07-09T03:18:38.434Z,25.00
2017-07-09T03:21:05.876Z,27.00
2017-07-09T03:23:33.310Z,25.50
2017-07-09T03:26:00.739Z,25.50
2017-07-09T03:28:28.153Z,26.30
2017-07-09T03:30:55.578Z,22.53
2017-07-09T03:33:23.019Z,25.17
2017-07-09T03:35:50.560Z,25.30
2017-07-09T03:38:17.983Z,25.50
2017-07-09T03:40:45.395Z,25.70
2017-07-09T03:43:12.831Z,26.30
2017-07-09T03:45:40.304Z,23.27
2017-07-09T03:48:07.759Z,27.50
2017-07-09T03:50:35.201Z,26.87
2017-07-09T03:53:02.635Z,27.57
2017-07-09T03:55:30.082Z,26.33
2017-07-09T03:57:57.514Z,26.00
2017-07-09T04:00:24.967Z,26.20
2017-07-09T04:02:52.395Z,25.87
2017-07-09T04:05:19.814Z,23.00
2017-07-09T04:07:47.246Z,26.70
2017-07-09T04:10:14.664Z,24.33
2017-07-09T04:12:42.091Z,24.40
2017-07-09T04:15:09.514Z,24.77
2017-07-09T04:17:36.943Z,24.67
2017-07-09T04:20:04.371Z,25.30
2017-07-09T04:22:31.796Z,24.77
2017-07-09T04:24:59.255Z,24.57
2017-07-09T04:27:26.682Z,24.90
2017-07-09T04:29:54.178Z,25.73
2017-07-09T04:32:21.618Z,25.20
2017-07-09T04:34:49.058Z,24.47
2017-07-09T04:37:16.498Z,24.53
2017-07-09T04:39:43.929Z,24.07
2017-07-09T04:42:11.395Z,25.87
2017-07-09T04:44:38.875Z,25.67
2017-07-09T04:47:06.494Z,25.40
2017-07-09T04:49:33.912Z,24.00
2017-07-09T04:52:01.373Z,25.03
2017-07-09T04:54:35.186Z,24.57
2017-07-09T04:57:02.979Z,25.90
2017-07-09T04:59:31.730Z,27.40
2017-07-09T05:01:59.174Z,26.27
2017-07-09T05:04:26.610Z,25.37
2017-07-09T05:06:54.056Z,26.13
2017-07-09T05:09:21.469Z,26.50
2017-07-09T05:11:50.032Z,27.57
2017-07-09T05:14:18.354Z,28.90
2017-07-09T05:16:45.774Z,26.10
2017-07-09T05:19:13.242Z,25.70
2017-07-09T05:21:42.594Z,27.00
2017-07-09T05:24:10.306Z,26.40
2017-07-09T05:26:37.730Z,28.37
2017-07-09T05:29:05.144Z,28.90
2017-07-09T05:31:32.605Z,29.97
2017-07-09T05:34:00.015Z,29.30
2017-07-09T05:36:27.689Z,29.17
2017-07-09T05:38:55.109Z,27.30
2017-07-09T05:41:22.562Z,27.23
2017-07-09T05:43:50.035Z,33.43
2017-07-09T05:46:17.466Z,33.20
2017-07-09T05:48:45.058Z,35.47
2017-07-09T05:51:12.475Z,35.07
2017-07-09T05:53:39.902Z,36.43
2017-07-09T05:56:07.330Z,37.47
2017-07-09T05:58:34.752Z,33.73
2017-07-09T06:01:02.346Z,30.17
2017-07-09T06:03:29.782Z,33.30
2017-07-09T06:05:57.216Z,29.83
2017-07-09T06:08:24.638Z,36.20
2017-07-09T06:10:52.055Z,35.50
2017-07-09T06:13:19.526Z,35.00
2017-07-09T06:15:46.947Z,37.13
2017-07-09T06:18:20.479Z,33.70
2017-07-09T06:20:47.899Z,35.07
2017-07-09T06:23:15.318Z,29.30
2017-07-09T06:25:42.753Z,32.57
2017-07-09T06:28:10.162Z,32.97
2017-07-09T06:30:37.886Z,33.57
2017-07-09T06:33:05.330Z,34.00
2017-07-09T06:35:32.751Z,33.60
2017-07-09T06:38:00.187Z,35.07
2017-07-09T06:40:27.616Z,35.03
2017-07-09T06:42:55.081Z,33.00
2017-07-09T06:45:22.505Z,31.77
2017-07-09T06:47:49.919Z,32.50
2017-07-09T06:50:18.206Z,31.67
2017-07-09T06:52:45.647Z,31.50
2017-07-09T06:55:13.513Z,32.07
2017-07-09T06:57:40.951Z,34.90
2017-07-09T07:00:08.380Z,34.20
2017-07-09T07:02:35.805Z,33.07
2017-07-09T07:05:03.219Z,32.30
2017-07-09T07:07:30.681Z,34.13
2017-07-09T07:09:58.108Z,35.33
2017-07-09T07:12:25.527Z,31.67
2017-07-09T07:14:52.959Z,31.67
2017-07-09T07:17:20.388Z,31.23
2017-07-09T07:19:48.150Z,32.97
2017-07-09T07:22:15.570Z,35.50
2017-07-09T07:24:43.068Z,34.53
2017-07-09T07:27:10.494Z,32.30
2017-07-09T07:29:37.912Z,31.77
2017-07-09T07:32:05.640Z,31.57
2017-07-09T07:34:33.055Z,29.87
2017-07-09T07:37:00.473Z,28.30
2017-07-09T07:39:27.934Z,29.97
2017-07-09T07:41:55.339Z,28.53
2017-07-09T07:44:23.138Z,27.40
2017-07-09T07:46:51.487Z,25.50
2017-07-09T07:49:18.910Z,29.77
2017-07-09T07:51:46.350Z,28.07
2017-07-09T07:54:13.786Z,28.90
2017-07-09T07:56:41.375Z,30.13
2017-07-09T07:59:09.011Z,30.90
2017-07-09T08:01:36.435Z,34.27
2017-07-09T08:04:03.908Z,35.00
2017-07-09T08:06:31.392Z,33.47
2017-07-09T08:08:58.828Z,34.03
2017-07-09T08:11:26.244Z,33.80
2017-07-09T08:13:53.690Z,36.40
2017-07-09T08:16:21.112Z,30.10
2017-07-09T08:18:48.527Z,31.10
2017-07-09T08:21:16.427Z,33.10
2017-07-09T08:23:43.853Z,29.60
2017-07-09T08:26:11.295Z,31.57
2017-07-09T08:28:38.717Z,31.67
2017-07-09T08:31:06.151Z,30.80
2017-07-09T08:33:33.573Z,28.80
2017-07-09T08:36:01.006Z,29.70
2017-07-09T08:38:28.432Z,30.63
2017-07-09T08:40:55.859Z,31.10
2017-07-09T08:43:23.278Z,29.23
2017-07-09T08:45:51.003Z,33.67
2017-07-09T08:48:18.431Z,32.87
2017-07-09T08:50:45.847Z,33.83
2017-07-09T08:53:13.277Z,35.53
2017-07-09T08:55:40.694Z,31.90
2017-07-09T08:58:08.130Z,32.30
2017-07-09T09:00:35.542Z,32.23
2017-07-09T09:03:02.968Z,32.00
2017-07-09T09:05:30.392Z,31.53
2017-07-09T09:07:57.811Z,32.00
2017-07-09T09:10:25.243Z,29.27
2017-07-09T09:12:52.679Z,31.20
2017-07-09T09:15:20.090Z,30.10
2017-07-09T09:17:47.528Z,31.43
2017-07-09T09:20:14.939Z,28.80
2017-07-09T09:22:42.400Z,28.83
2017-07-09T09:25:09.810Z,29.30
2017-07-09T09:27:37.227Z,32.13
2017-07-09T09:30:04.654Z,29.70
2017-07-09T09:32:32.070Z,27.87
2017-07-09T09:34:59.542Z,30.63
2017-07-09T09:37:26.957Z,26.73
2017-07-09T09:39:54.384Z,29.20
2017-07-09T09:42:21.818Z,31.00
2017-07-09T09:44:49.233Z,28.53
2017-07-09T09:47:16.663Z,26.97
2017-07-09T09:49:44.083Z,28.70
2017-07-09T09:52:11.512Z,27.57
2017-07-09T09:54:38.939Z,27.67
2017-07-09T09:57:06.368Z,31.30
2017-07-09T09:59:33.837Z,31.07
2017-07-09T10:02:01.255Z,27.23
2017-07-09T10:04:28.665Z,31.07
2017-07-09T10:06:56.096Z,27.03
2017-07-09T10:09:23.519Z,29.30
2017-07-09T10:11:50.958Z,31.50
2017-07-09T10:14:19.338Z,26.90
2017-07-09T10:16:46.799Z,28.37
2017-07-09T10:19:14.265Z,28.77
2017-07-09T10:21:41.680Z,32.83
2017-07-09T10:24:09.131Z,28.73
2017-07-09T10:26:36.545Z,30.03
2017-07-09T10:29:03.980Z,34.30
2017-07-09T10:31:31.399Z,30.27
2017-07-09T10:33:58.814Z,26.90
2017-07-09T10:36:26.246Z,25.20
2017-07-09T10:38:53.667Z,31.07
2017-07-09T10:41:21.085Z,30.73
2017-07-09T10:43:48.511Z,28.30
2017-07-09T10:46:15.923Z,25.60
2017-07-09T10:48:43.356Z,28.43
2017-07-09T10:51:10.770Z,26.97
2017-07-09T10:53:38.187Z,28.43
2017-07-09T10:56:05.709Z,27.50
2017-07-09T10:58:33.122Z,31.77
2017-07-09T11:01:00.556Z,30.03
2017-07-09T11:03:28.002Z,30.73
2017-07-09T11:05:55.423Z,30.20
2017-07-09T11:08:22.847Z,33.03
2017-07-09T11:10:51.278Z,36.37
2017-07-09T11:13:18.720Z,28.53
2017-07-09T11:15:46.136Z,28.57
2017-07-09T11:18:13.546Z,24.60
2017-07-09T11:20:40.975Z,28.73
2017-07-09T11:23:08.386Z,31.17
2017-07-09T11:25:35.822Z,32.53
2017-07-09T11:28:03.242Z,30.03
2017-07-09T11:30:30.665Z,28.40
2017-07-09T11:32:58.094Z,29.67
2017-07-09T11:35:25.511Z,31.57
2017-07-09T11:37:52.947Z,28.63
2017-07-09T11:40:20.366Z,27.30
2017-07-09T11:42:47.774Z,30.97
2017-07-09T11:45:15.202Z,28.80
2017-07-09T11:47:42.721Z,29.00
2017-07-09T11:50:10.159Z,28.37
2017-07-09T11:52:37.570Z,28.67
2017-07-09T11:55:04.995Z,27.83
2017-07-09T11:57:32.431Z,29.73
2017-07-09T11:59:59.846Z,26.27
2017-07-09T12:02:27.279Z,27.20
2017-07-09T12:04:54.699Z,26.97
2017-07-09T12:07:22.126Z,31.37
2017-07-09T12:09:49.556Z,26.93
2017-07-09T12:12:16.975Z,29.20
2017-07-09T12:14:44.407Z,28.73
2017-07-09T12:17:11.822Z,29.93
2017-07-09T12:19:39.243Z,30.20
2017-07-09T12:22:06.670Z,27.80
2017-07-09T12:24:34.083Z,31.30
2017-07-09T12:27:01.527Z,26.57
2017-07-09T12:29:28.939Z,30.80
2017-07-09T12:31:56.350Z,31.40
2017-07-09T12:34:23.770Z,28.80
2017-07-09T12:36:51.187Z,27.53
2017-07-09T12:39:18.621Z,31.30
2017-07-09T12:41:46.031Z,29.00
2017-07-09T12:44:13.458Z,29.20
2017-07-09T12:46:40.870Z,30.30
2017-07-09T12:49:08.286Z,32.77
2017-07-09T12:51:35.711Z,29.00
2017-07-09T12:54:03.137Z,33.03
2017-07-09T12:56:30.574Z,32.60
2017-07-09T12:58:57.994Z,32.13
2017-07-09T13:01:25.414Z,27.70
2017-07-09T13:03:52.841Z,26.10
2017-07-09T13:06:20.251Z,32.03
2017-07-09T13:08:47.687Z,31.50
2017-07-09T13:11:15.099Z,32.10
2017-07-09T13:13:42.523Z,29.77
2017-07-09T13:16:09.957Z,31.80
2017-07-09T13:18:37.377Z,27.97
2017-07-09T13:21:04.823Z,31.37
2017-07-09T13:23:32.234Z,29.63
2017-07-09T13:25:59.657Z,30.10
2017-07-09T13:28:27.078Z,32.57
2017-07-09T13:30:54.494Z,27.07
2017-07-09T13:33:21.923Z,30.70
2017-07-09T13:35:49.338Z,34.10
2017-07-09T13:38:16.758Z,32.10
2017-07-09T13:40:44.187Z,30.93
2017-07-09T13:43:11.599Z,28.80
2017-07-09T13:45:39.031Z,27.17
2017-07-09T13:48:06.449Z,27.40
2017-07-09T13:50:33.872Z,26.90
2017-07-09T13:53:01.308Z,28.57
2017-07-09T13:55:28.722Z,31.17
2017-07-09T13:57:56.141Z,33.20
2017-07-09T14:00:23.604Z,29.37
2017-07-09T14:02:51.026Z,31.97
2017-07-09T14:05:18.446Z,28.80
2017-07-09T14:07:45.875Z,31.77
2017-07-09T14:10:13.286Z,26.90
2017-07-09T14:12:40.695Z,26.53
2017-07-09T14:15:08.129Z,28.97
2017-07-09T14:17:35.553Z,25.57
2017-07-09T14:20:03.002Z,23.80
2017-07-09T14:22:30.426Z,24.47
2017-07-09T14:24:57.842Z,25.17
2017-07-09T14:27:25.287Z,25.03
2017-07-09T14:29:52.703Z,25.20
2017-07-09T14:32:20.446Z,23.70
2017-07-09T14:34:47.867Z,25.53
2017-07-09T14:37:15.292Z,22.70
2017-07-09T14:39:42.752Z,23.67
2017-07-09T14:42:10.306Z,22.27
2017-07-09T14:44:37.751Z,22.63
2017-07-09T14:47:05.170Z,23.03
2017-07-09T14:49:32.592Z,22.87
2017-07-09T14:52:00.010Z,22.20
2017-07-09T14:54:27.432Z,22.67
2017-07-09T14:56:54.865Z,21.00
2017-07-09T14:59:22.290Z,21.97
2017-07-09T15:01:49.729Z,21.87
2017-07-09T15:04:17.154Z,21.00
2017-07-09T15:06:44.570Z,19.07
2017-07-09T15:09:12.002Z,21.10
2017-07-09T15:11:39.426Z,20.80
2017-07-09T15:14:07.466Z,18.10
2017-07-09T15:16:34.943Z,19.90
2017-07-09T15:19:02.330Z,20.83
2017-07-09T15:21:29.755Z,19.40
2017-07-09T15:23:57.157Z,22.00
2017-07-09T15:26:24.584Z,22.30
2017-07-09T15:28:52.004Z,19.73
2017-07-09T15:31:19.419Z,21.10
2017-07-09T15:33:46.871Z,21.83
2017-07-09T15:36:14.295Z,23.23
2017-07-09T15:38:42.290Z,22.70
2017-07-09T15:41:10.094Z,22.53
2017-07-09T15:43:41.179Z,23.00
2017-07-09T15:46:08.615Z,24.77
2017-07-09T15:48:36.027Z,23.00
2017-07-09T15:51:03.438Z,24.77
2017-07-09T15:53:30.858Z,24.57
2017-07-09T15:55:58.715Z,24.80
2017-07-09T15:58:26.148Z,22.50
2017-07-09T16:00:54.359Z,23.30
2017-07-09T16:03:21.814Z,22.50
2017-07-09T16:05:49.237Z,23.17
2017-07-09T16:08:16.654Z,22.10
2017-07-09T16:10:44.087Z,22.30
2017-07-09T16:13:11.502Z,21.50
2017-07-09T16:15:39.514Z,22.97
2017-07-09T16:18:06.979Z,24.07
2017-07-09T16:20:34.454Z,21.73
2017-07-09T16:23:02.478Z,21.67
2017-07-09T16:25:29.903Z,22.70
2017-07-09T16:27:57.315Z,22.00
2017-07-09T16:30:24.906Z,23.00
2017-07-09T16:32:52.318Z,23.63
2017-07-09T16:35:20.091Z,22.17
2017-07-09T16:37:47.506Z,23.40
2017-07-09T16:40:14.975Z,23.03
2017-07-09T16:42:43.338Z,28.30
2017-07-09T16:45:10.746Z,21.40
2017-07-09T16:47:38.192Z,21.27
2017-07-09T16:50:05.610Z,21.60
2017-07-09T16:52:33.033Z,22.67
2017-07-09T16:55:01.199Z,20.97
2017-07-09T16:57:28.628Z,23.33
2017-07-09T16:59:56.059Z,23.03
2017-07-09T17:02:23.472Z,24.50
2017-07-09T17:04:50.974Z,23.00
2017-07-09T17:07:18.403Z,22.37
2017-07-09T17:09:46.526Z,24.23
2017-07-09T17:12:14.050Z,23.67
2017-07-09T17:14:41.410Z,23.57
2017-07-09T17:17:08.822Z,22.20
2017-07-09T17:19:36.239Z,22.97
2017-07-09T17:22:03.682Z,25.70
2017-07-09T17:24:31.123Z,24.00
2017-07-09T17:26:58.542Z,24.80
2017-07-09T17:29:25.950Z,23.03
2017-07-09T17:31:53.381Z,23.20
2017-07-09T17:34:20.794Z,22.90
2017-07-09T17:36:48.224Z,23.40
2017-07-09T17:39:15.642Z,23.40
2017-07-09T17:41:43.059Z,23.60
2017-07-09T17:44:10.491Z,24.10
2017-07-09T17:46:37.913Z,25.30
2017-07-09T17:49:05.341Z,24.03
2017-07-09T17:51:32.759Z,24.03
2017-07-09T17:54:00.177Z,22.50
2017-07-09T17:56:27.608Z,23.27
2017-07-09T17:58:55.019Z,24.13
2017-07-09T18:01:22.496Z,23.27
2017-07-09T18:03:49.906Z,22.60
2017-07-09T18:06:17.315Z,22.63
2017-07-09T18:08:44.738Z,23.10
2017-07-09T18:11:12.157Z,23.07
2017-07-09T18:13:39.587Z,24.17
2017-07-09T18:16:07.005Z,23.70
2017-07-09T18:18:34.420Z,23.00
2017-07-09T18:21:01.843Z,22.67
2017-07-09T18:23:29.329Z,22.70
2017-07-09T18:25:57.102Z,23.50
2017-07-09T18:28:24.509Z,23.27
2017-07-09T18:30:51.927Z,24.30
2017-07-09T18:33:19.346Z,24.63
2017-07-09T18:35:46.767Z,24.13
2017-07-09T18:38:14.202Z,24.57
2017-07-09T18:40:41.655Z,24.83
2017-07-09T18:43:09.067Z,23.60
2017-07-09T18:45:36.494Z,23.53
2017-07-09T18:48:03.910Z,25.07
2017-07-09T18:50:31.346Z,25.33
2017-07-09T18:52:58.763Z,25.27
2017-07-09T18:55:26.184Z,24.57
2017-07-09T18:57:53.622Z,24.50
2017-07-09T19:00:21.064Z,26.00
2017-07-09T19:02:48.557Z,24.90
2017-07-09T19:05:15.979Z,24.50
2017-07-09T19:07:43.383Z,23.80
2017-07-09T19:10:14.099Z,26.90
2017-07-09T19:12:41.511Z,27.63
2017-07-09T19:15:08.979Z,25.80
2017-07-09T19:17:36.395Z,24.40
2017-07-09T19:20:03.809Z,27.00
2017-07-09T19:22:31.272Z,26.97
2017-07-09T19:24:58.684Z,27.83
2017-07-09T19:27:26.190Z,27.43
2017-07-09T19:29:53.602Z,28.47
2017-07-09T19:32:21.048Z,26.50
2017-07-09T19:34:48.493Z,27.23
2017-07-09T19:37:15.909Z,26.80
2017-07-09T19:39:43.343Z,27.53
2017-07-09T19:42:10.754Z,27.57
2017-07-09T19:44:38.175Z,28.03
2017-07-09T19:47:05.631Z,28.50
2017-07-09T19:49:33.054Z,28.60
2017-07-09T19:52:00.515Z,28.83
2017-07-09T19:54:27.929Z,26.93
2017-07-09T19:56:55.343Z,27.00
2017-07-09T19:59:22.834Z,26.27
2017-07-09T20:01:50.258Z,26.57
2017-07-09T20:04:17.690Z,24.77
2017-07-09T20:06:45.099Z,25.83
2017-07-09T20:09:12.519Z,23.43
2017-07-09T20:11:39.983Z,25.37
2017-07-09T20:14:07.422Z,25.40
2017-07-09T20:16:34.854Z,25.63
2017-07-09T20:19:02.286Z,22.83
2017-07-09T20:21:29.699Z,24.60
2017-07-09T20:23:57.115Z,24.60
2017-07-09T20:26:24.558Z,26.10
2017-07-09T20:28:51.970Z,25.97
2017-07-09T20:31:19.427Z,25.10
2017-07-09T20:33:46.852Z,25.40
2017-07-09T20:36:14.250Z,26.47
2017-07-09T20:38:41.687Z,26.30
2017-07-09T20:41:09.095Z,24.70
2017-07-09T20:43:36.535Z,24.90
2017-07-09T20:46:03.955Z,25.53
2017-07-09T20:48:31.372Z,24.80
2017-07-09T20:50:58.796Z,24.60
2017-07-09T20:53:26.206Z,24.93
2017-07-09T20:55:53.648Z,26.10
2017-07-09T20:58:21.076Z,26.37
2017-07-09T21:00:48.496Z,26.13
2017-07-09T21:03:15.928Z,23.90
2017-07-09T21:05:43.443Z,26.17
2017-07-09T21:08:10.882Z,26.13
2017-07-09T21:10:38.307Z,26.10
2017-07-09T21:13:05.734Z,25.27
2017-07-09T21:15:33.157Z,26.50
2017-07-09T21:18:00.570Z,25.60
2017-07-09T21:20:28.001Z,25.10
2017-07-09T21:22:55.412Z,26.50
2017-07-09T21:25:22.818Z,27.00
2017-07-09T21:27:50.238Z,25.83
2017-07-09T21:30:17.658Z,25.10
2017-07-09T21:32:45.093Z,28.23
2017-07-09T21:35:12.515Z,26.77
2017-07-09T21:37:39.929Z,27.07
2017-07-09T21:40:07.348Z,25.77
2017-07-09T21:42:34.771Z,25.43
2017-07-09T21:45:02.212Z,27.27
2017-07-09T21:47:29.635Z,26.53
2017-07-09T21:49:57.042Z,27.07
2017-07-09T21:52:24.477Z,27.40
2017-07-09T21:54:51.883Z,26.30
2017-07-09T21:57:19.306Z,27.13
2017-07-09T21:59:46.715Z,27.80
2017-07-09T22:02:14.132Z,24.67
2017-07-09T22:04:41.549Z,27.00
2017-07-09T22:07:08.954Z,27.13
2017-07-09T22:09:36.398Z,26.60
2017-07-09T22:12:03.814Z,24.90
2017-07-09T22:14:31.222Z,26.57
2017-07-09T22:16:58.646Z,25.90
2017-07-09T22:19:26.075Z,28.10
2017-07-09T22:21:53.519Z,24.70
2017-07-09T22:24:20.936Z,24.87
2017-07-09T22:26:48.340Z,26.40
2017-07-09T22:29:15.765Z,26.00
2017-07-09T22:31:43.179Z,27.53
2017-07-09T22:34:10.772Z,26.40
2017-07-09T22:36:38.189Z,26.50
2017-07-09T22:39:05.596Z,26.00
2017-07-09T22:41:33.018Z,26.63
2017-07-09T22:44:00.428Z,26.73
2017-07-09T22:46:27.857Z,26.20
2017-07-09T22:48:55.267Z,25.77
2017-07-09T22:51:22.678Z,26.93
2017-07-09T22:53:50.108Z,25.47
2017-07-09T22:56:17.514Z,27.40
2017-07-09T22:58:44.956Z,26.27
2017-07-09T23:01:12.375Z,25.77
2017-07-09T23:03:39.790Z,25.70
2017-07-09T23:06:07.213Z,27.23
2017-07-09T23:08:34.621Z,25.50
2017-07-09T23:11:02.054Z,26.40
2017-07-09T23:13:29.472Z,26.70
2017-07-09T23:15:56.880Z,26.43
2017-07-09T23:18:24.304Z,24.70
2017-07-09T23:20:51.722Z,26.40
2017-07-09T23:23:19.145Z,24.83
2017-07-09T23:25:46.563Z,25.70
2017-07-09T23:28:13.967Z,27.80
2017-07-09T23:30:41.393Z,28.60
2017-07-09T23:33:08.808Z,30.37
2017-07-09T23:35:36.248Z,32.20
2017-07-09T23:38:03.658Z,34.00
2017-07-09T23:40:31.075Z,34.13
2017-07-09T23:42:58.502Z,35.90
2017-07-09T23:45:25.911Z,36.50
2017-07-09T23:47:53.347Z,35.33
2017-07-09T23:50:20.756Z,33.70
2017-07-09T23:52:48.203Z,36.10
2017-07-09T23:55:15.615Z,36.63
2017-07-09T23:57:43.031Z,36.30
